Time;durP1;ratioP1;P1;durP2;ratioP2;P2;SDS_P1;SDS_P2;PMS_P1;PMS_P2;Temp;Humidity;BMP_temperature;BMP_pressure;BME280_temperature;BME280_humidity;BME280_pressure;Samples;Min_cycle;Max_cycle;Signal;HPM_P1;HPM_P2
2023/04/09 00:01:50;;;;;;;12.10;11.00;;;6.90;99.90;;;7.72;98.25;98567.03;5242626;28;20231;-63
2023/04/09 00:04:23;;;;;;;11.77;10.87;;;6.90;99.90;;;7.73;98.12;98575.59;5242543;28;20205;-63
2023/04/09 00:06:58;;;;;;;12.27;11.27;;;6.90;99.90;;;7.67;98.64;98570.91;5240132;28;20193;-64
2023/04/09 00:09:31;;;;;;;12.67;11.57;;;6.80;99.90;;;7.63;98.03;98574.84;5243358;28;20206;-64
2023/04/09 00:12:05;;;;;;;11.80;10.83;;;6.80;99.90;;;7.53;97.93;98567.25;5243716;28;20204;-63
2023/04/09 00:14:38;;;;;;;12.57;11.53;;;6.70;99.90;;;7.48;98.17;98566.00;5242056;28;20256;-64
2023/04/09 00:17:11;;;;;;;13.10;12.00;;;6.70;99.90;;;7.42;97.29;98565.50;5243204;28;20219;-64
2023/04/09 00:19:44;;;;;;;13.77;12.57;;;6.60;99.90;;;7.41;98.52;98568.78;5242814;28;20640;-64
2023/04/09 00:22:18;;;;;;;13.87;12.67;;;6.60;99.90;;;7.42;98.61;98568.94;5241583;28;20901;-64
2023/04/09 00:24:51;;;;;;;14.03;12.77;;;6.60;99.90;;;7.44;98.52;98564.88;5241530;28;20216;-64
2023/04/09 00:27:24;;;;;;;14.97;13.57;;;6.60;99.90;;;7.47;98.70;98568.41;5239554;28;20255;-64
2023/04/09 00:29:57;;;;;;;14.57;13.33;;;6.70;99.90;;;7.48;98.90;98566.00;5237621;28;20287;-64
2023/04/09 00:32:30;;;;;;;15.10;13.70;;;6.70;99.90;;;7.52;98.40;98568.00;5244738;28;20235;-64
2023/04/09 00:35:04;;;;;;;14.77;13.37;;;6.70;99.90;;;7.53;97.72;98574.88;5240458;28;20252;-63
2023/04/09 00:37:39;;;;;;;13.80;12.60;;;6.70;99.90;;;7.52;98.24;98573.09;5236009;28;20208;-64
2023/04/09 00:40:12;;;;;;;14.17;12.97;;;6.70;99.90;;;7.53;98.77;98569.78;5243049;28;20297;-64
2023/04/09 00:42:45;;;;;;;12.40;11.30;;;6.70;99.90;;;7.54;97.68;98571.56;5239933;28;20243;-64
2023/04/09 00:45:18;;;;;;;11.80;10.80;;;6.70;99.90;;;7.54;98.12;98571.56;5238653;28;20270;-64
2023/04/09 00:47:52;;;;;;;11.70;10.70;;;6.70;99.90;;;7.59;97.45;98570.28;5241826;28;20591;-64
2023/04/09 00:50:25;;;;;;;12.80;11.50;;;6.70;99.90;;;7.54;97.85;98571.56;5240021;28;20207;-64
2023/04/09 00:53:00;;;;;;;13.10;12.10;;;6.70;99.90;;;7.48;98.13;98573.63;5242012;28;20228;-64
2023/04/09 00:55:34;;;;;;;12.70;11.60;;;6.60;99.90;;;7.43;98.19;98578.31;5239576;28;20311;-64
2023/04/09 00:58:07;;;;;;;11.17;10.30;;;6.60;99.90;;;7.48;98.53;98575.28;5239226;28;20316;-64
2023/04/09 01:00:40;;;;;;;11.70;10.80;;;6.60;99.90;;;7.44;98.84;98581.78;5241298;28;20569;-65
2023/04/09 01:03:13;;;;;;;11.37;10.37;;;6.60;99.90;;;7.42;98.39;98575.69;5241391;28;20630;-63
2023/04/09 01:05:54;;;;;;;11.27;10.37;;;6.60;99.90;;;7.42;99.19;98576.56;5241234;28;20220;-63
2023/04/09 01:08:39;;;;;;;12.57;11.47;;;6.60;99.90;;;7.40;99.06;98574.66;5238250;28;20200;-64
2023/04/09 01:11:28;;;;;;;12.37;11.30;;;6.60;99.90;;;7.39;99.80;98577.97;5241586;28;20701;-63
2023/04/09 01:14:11;;;;;;;12.47;11.47;;;6.60;99.90;;;7.39;100.00;98575.44;5239662;28;20574;-63
2023/04/09 01:16:48;;;;;;;12.83;11.73;;;6.60;99.90;;;7.41;99.36;98573.88;5241565;28;20200;-63
2023/04/09 01:19:37;;;;;;;12.47;11.53;;;6.60;99.90;;;7.39;99.34;98578.84;5239813;28;20211;-64
2023/04/09 01:22:24;;;;;;;13.57;12.30;;;6.60;99.90;;;7.32;98.91;98570.59;5240205;28;20695;-63
2023/04/09 01:25:09;;;;;;;12.87;11.80;;;6.50;99.90;;;7.28;99.74;98566.94;5242140;28;20227;-63
2023/04/09 01:27:55;;;;;;;13.13;12.03;;;6.50;99.90;;;7.29;99.60;98567.81;5238485;28;20216;-63
2023/04/09 01:30:30;;;;;;;11.73;10.83;;;6.50;99.90;;;7.25;99.34;98571.75;5240717;28;20209;-63
2023/04/09 01:33:04;;;;;;;13.60;12.43;;;6.40;99.90;;;7.28;99.94;98563.50;5241904;28;20212;-64
2023/04/09 01:35:38;;;;;;;13.30;12.20;;;6.50;99.90;;;7.26;99.61;98572.66;5237999;28;20220;-63
2023/04/09 01:38:12;;;;;;;13.33;12.20;;;6.50;99.90;;;7.28;100.00;98572.00;5238512;28;20232;-64
2023/04/09 01:40:46;;;;;;;13.23;12.03;;;6.50;99.90;;;7.32;99.64;98574.03;5242987;28;20208;-63
2023/04/09 01:43:20;;;;;;;13.17;12.07;;;6.60;99.90;;;7.25;99.72;98568.34;5239917;28;20216;-63
2023/04/09 01:45:54;;;;;;;12.73;11.73;;;6.40;99.90;;;7.28;99.88;98566.03;5240892;28;20212;-64
2023/04/09 01:48:30;;;;;;;13.07;11.97;;;6.50;99.90;;;7.29;99.54;98568.69;5240720;28;20304;-63
2023/04/09 01:51:03;;;;;;;13.10;11.90;;;6.50;99.90;;;7.31;99.25;98566.28;5239894;28;20567;-64
2023/04/09 01:53:37;;;;;;;13.50;12.20;;;6.50;99.90;;;7.28;99.48;98564.38;5234573;28;20203;-63
2023/04/09 01:56:10;;;;;;;12.67;11.63;;;6.50;99.90;;;7.29;100.00;98562.72;5239425;28;20232;-63
2023/04/09 01:58:43;;;;;;;12.40;11.30;;;6.50;99.90;;;7.31;100.00;98568.84;5237896;28;20208;-64
2023/04/09 02:01:25;;;;;;;12.87;11.70;;;6.50;99.90;;;7.30;100.00;98559.44;5240788;28;20208;-64
2023/04/09 02:04:03;;;;;;;11.90;10.80;;;6.50;99.90;;;7.30;100.00;98569.59;5239918;28;20589;-64
2023/04/09 02:06:42;;;;;;;13.67;12.57;;;6.50;99.90;;;7.29;100.00;98562.72;5237843;28;20208;-64
2023/04/09 02:09:18;;;;;;;13.43;12.23;;;6.50;99.90;;;7.29;100.00;98562.72;5237596;28;20698;-64
2023/04/09 02:11:53;;;;;;;14.40;12.97;;;6.50;99.90;;;7.32;100.00;98570.59;5242105;28;20196;-64
2023/04/09 02:14:29;;;;;;;13.97;12.80;;;6.50;99.90;;;7.33;100.00;98572.41;5240164;28;20199;-63
2023/04/09 02:17:03;;;;;;;14.00;12.77;;;6.50;99.90;;;7.38;100.00;98566.00;5240416;28;20215;-63
2023/04/09 02:19:40;;;;;;;13.93;12.67;;;6.60;99.90;;;7.39;100.00;98567.81;5236778;28;20783;-63
2023/04/09 02:22:15;;;;;;;13.23;12.00;;;6.60;99.90;;;7.29;99.60;98561.06;5239904;28;20196;-63
2023/04/09 02:24:48;;;;;;;13.07;11.87;;;6.50;99.90;;;7.30;99.64;98564.53;5239653;28;20296;-63
2023/04/09 02:27:21;;;;;;;13.30;12.10;;;6.50;99.90;;;7.29;100.00;98562.72;5237911;28;20247;-63
2023/04/09 02:29:54;;;;;;;12.97;11.77;;;6.40;99.90;;;7.25;100.00;98563.25;5235011;28;20236;-63
2023/04/09 02:32:29;;;;;;;12.17;11.17;;;6.40;99.90;;;7.26;100.00;98567.56;5240306;28;20200;-64
2023/04/09 02:35:02;;;;;;;14.67;13.33;;;6.50;99.90;;;7.27;100.00;98559.16;5239495;28;20484;-64
2023/04/09 02:37:35;;;;;;;13.70;12.50;;;6.50;99.90;;;7.28;100.00;98564.38;5238905;28;20255;-63
2023/04/09 02:40:10;;;;;;;13.10;12.00;;;6.50;99.90;;;7.25;100.00;98561.59;5238449;28;20197;-64
2023/04/09 02:42:43;;;;;;;12.90;11.80;;;6.40;99.90;;;7.27;100.00;98564.25;5238191;28;20212;-64
2023/04/09 02:45:16;;;;;;;12.33;11.33;;;6.40;99.90;;;7.25;100.00;98571.75;5237951;28;20224;-64
2023/04/09 02:47:50;;;;;;;13.00;11.90;;;6.50;99.90;;;7.25;100.00;98565.78;5239988;28;20205;-64
2023/04/09 02:50:23;;;;;;;13.37;12.27;;;6.40;99.90;;;7.27;100.00;98565.16;5239718;28;20609;-64
2023/04/09 02:52:56;;;;;;;12.83;11.83;;;6.50;99.90;;;7.28;100.00;98566.94;5244072;28;20236;-63
2023/04/09 02:55:29;;;;;;;13.90;12.60;;;6.50;99.90;;;7.32;100.00;98573.13;5236271;28;20236;-63
2023/04/09 02:58:02;;;;;;;13.20;12.10;;;6.50;99.90;;;7.29;100.00;98567.81;5236896;28;20197;-63
2023/04/09 03:00:35;;;;;;;13.50;12.30;;;6.40;99.90;;;7.26;100.00;98571.00;5239889;28;20208;-64
2023/04/09 03:03:10;;;;;;;12.60;11.60;;;6.40;99.90;;;7.21;100.00;98564.63;5240014;28;20208;-63
2023/04/09 03:05:43;;;;;;;15.03;13.73;;;6.40;99.90;;;7.20;100.00;98568.84;5237816;28;20216;-64
2023/04/09 03:08:16;;;;;;;13.73;12.43;;;6.40;99.90;;;7.21;100.00;98560.47;5238988;28;20216;-64
2023/04/09 03:10:49;;;;;;;13.37;12.07;;;6.40;99.90;;;7.19;100.00;98554.34;5237343;28;20208;-64
2023/04/09 03:13:22;;;;;;;13.50;12.30;;;6.40;99.90;;;7.21;100.00;98554.47;5240320;28;20205;-63
2023/04/09 03:15:55;;;;;;;14.03;12.73;;;6.40;99.90;;;7.21;100.00;98554.47;5238527;28;20225;-64
2023/04/09 03:18:29;;;;;;;13.03;11.83;;;6.40;99.90;;;7.23;100.00;98553.81;5242121;28;20209;-64
2023/04/09 03:21:06;;;;;;;12.70;11.70;;;6.40;99.90;;;7.23;100.00;98552.94;5239073;28;20200;-64
2023/04/09 03:23:39;;;;;;;13.20;12.10;;;6.40;99.90;;;7.24;100.00;98557.28;5237894;28;20206;-64
2023/04/09 03:26:12;;;;;;;14.27;12.87;;;6.40;99.90;;;7.24;100.00;98549.66;5235083;28;20271;-64
2023/04/09 03:28:45;;;;;;;14.57;13.23;;;6.40;99.90;;;7.18;100.00;98544.97;5240368;28;20207;-64
2023/04/09 03:31:18;;;;;;;14.17;12.90;;;6.30;99.90;;;7.14;100.00;98545.47;5238414;28;20291;-64
2023/04/09 03:33:53;;;;;;;13.40;12.20;;;6.30;99.90;;;7.08;100.00;98547.50;5238816;28;20205;-63
2023/04/09 03:36:26;;;;;;;14.03;12.83;;;6.30;99.90;;;7.01;100.00;98550.34;5242292;28;20313;-64
2023/04/09 03:39:00;;;;;;;14.50;13.17;;;6.20;99.90;;;7.04;100.00;98550.56;5241991;28;20291;-64
2023/04/09 03:41:33;;;;;;;15.23;14.00;;;6.20;99.90;;;7.05;100.00;98547.25;5242590;28;20620;-64
2023/04/09 03:44:07;;;;;;;15.90;14.60;;;6.30;99.90;;;7.07;100.00;98540.66;5242374;28;20207;-63
2023/04/09 03:46:40;;;;;;;14.50;13.10;;;6.30;99.90;;;7.11;100.00;98542.66;5243241;28;20200;-64
2023/04/09 03:49:15;;;;;;;14.70;13.40;;;6.30;99.90;;;7.11;100.00;98542.66;5240388;28;20660;-64
2023/04/09 03:51:48;;;;;;;13.73;12.43;;;6.30;99.90;;;7.09;100.00;98538.22;5241717;28;20226;-64
2023/04/09 03:54:21;;;;;;;12.23;11.23;;;6.30;99.90;;;7.07;100.00;98535.56;5241201;28;20201;-64
2023/04/09 03:56:55;;;;;;;12.93;11.80;;;6.30;99.90;;;7.06;100.00;98540.53;5241909;28;20220;-64
2023/04/09 03:59:28;;;;;;;13.83;12.73;;;6.30;99.90;;;7.08;100.00;98536.47;5240500;28;20287;-64
2023/04/09 04:02:01;;;;;;;13.30;12.13;;;6.30;99.90;;;7.06;100.00;98543.94;5244764;28;20696;-63
2023/04/09 04:04:35;;;;;;;15.20;13.87;;;6.30;99.90;;;6.98;100.00;98550.97;5242674;28;20309;-64
2023/04/09 04:07:08;;;;;;;13.57;12.37;;;6.20;99.90;;;6.93;100.00;98547.16;5239532;28;20295;-64
2023/04/09 04:09:41;;;;;;;14.27;12.97;;;6.10;99.90;;;6.96;100.00;98549.94;5238630;28;20292;-64
2023/04/09 04:12:14;;;;;;;15.13;13.63;;;6.10;99.90;;;6.98;100.00;98550.06;5241938;28;20636;-63
2023/04/09 04:14:47;;;;;;;15.53;14.03;;;6.10;99.90;;;6.95;100.00;98554.88;5244617;28;20224;-63
2023/04/09 04:17:20;;;;;;;14.93;13.63;;;6.10;99.90;;;6.96;100.00;98551.59;5245020;28;20240;-64
2023/04/09 04:19:55;;;;;;;14.17;13.00;;;6.10;99.90;;;6.87;100.00;98555.94;5239281;28;20205;-63
2023/04/09 04:22:28;;;;;;;15.80;14.30;;;6.10;99.90;;;6.75;100.00;98554.16;5242343;28;20211;-63
2023/04/09 04:25:01;;;;;;;15.37;13.87;;;6.00;99.90;;;6.79;100.00;98551.88;5237896;28;20259;-64
2023/04/09 04:27:34;;;;;;;15.03;13.60;;;6.00;99.90;;;6.84;100.00;98563.28;5240839;28;20201;-63
2023/04/09 04:30:09;;;;;;;14.63;13.23;;;6.10;99.90;;;6.77;100.00;98560.22;5242264;28;20652;-64
2023/04/09 04:32:42;;;;;;;14.73;13.43;;;6.00;99.90;;;6.75;100.00;98560.84;5234819;28;20206;-64
2023/04/09 04:35:16;;;;;;;14.70;13.40;;;6.00;99.90;;;6.83;100.00;98558.97;5243874;28;20842;-64
2023/04/09 04:37:50;;;;;;;15.57;14.17;;;6.10;99.90;;;6.89;100.00;98562.00;5239722;28;20682;-63
2023/04/09 04:40:24;;;;;;;16.40;14.80;;;6.10;99.90;;;6.88;100.00;98563.66;5237318;28;20255;-63
2023/04/09 04:42:57;;;;;;;15.13;13.83;;;6.10;99.90;;;6.88;100.00;98568.75;5241083;28;20204;-64
2023/04/09 04:45:30;;;;;;;14.47;13.17;;;6.10;99.90;;;6.90;100.00;98572.31;5233539;28;20664;-64
2023/04/09 04:48:03;;;;;;;15.97;14.47;;;6.20;99.90;;;6.91;100.00;98568.13;5237635;28;20197;-63
2023/04/09 04:50:37;;;;;;;15.97;14.47;;;6.20;99.90;;;6.93;100.00;98571.69;5237653;28;20251;-63
2023/04/09 04:53:10;;;;;;;15.07;13.77;;;6.20;99.90;;;6.95;100.00;98565.03;5238844;28;20227;-63
2023/04/09 04:55:43;;;;;;;15.67;14.27;;;6.20;99.90;;;6.96;100.00;98566.84;5236034;28;20248;-63
2023/04/09 04:58:16;;;;;;;15.63;14.23;;;6.20;99.90;;;6.93;100.00;98566.59;5245051;28;20224;-63
2023/04/09 05:00:49;;;;;;;15.10;13.60;;;6.20;99.90;;;6.89;100.00;98569.63;5234835;28;20219;-65
2023/04/09 05:03:22;;;;;;;15.77;14.30;;;6.10;99.90;;;6.85;100.00;98570.16;5243503;28;20205;-64
2023/04/09 05:06:00;;;;;;;15.00;13.67;;;6.10;99.90;;;6.82;100.00;98568.25;5234071;28;20238;-64
2023/04/09 05:08:33;;;;;;;14.80;13.33;;;6.00;99.90;;;6.77;100.00;98580.56;5241113;28;20200;-64
2023/04/09 05:11:06;;;;;;;14.53;13.10;;;5.90;99.90;;;6.73;100.00;98575.13;5237130;28;20517;-64
2023/04/09 05:13:39;;;;;;;14.93;13.53;;;5.90;99.90;;;6.65;100.00;98577.00;5239178;28;20197;-64
2023/04/09 05:16:17;;;;;;;14.67;13.37;;;5.80;99.90;;;6.66;100.00;98580.41;5239652;28;20220;-65
2023/04/09 05:18:50;;;;;;;14.83;13.53;;;5.70;99.90;;;6.61;100.00;98576.59;5234461;28;20222;-64
2023/04/09 05:21:26;;;;;;;15.53;14.00;;;5.70;99.90;;;6.57;100.00;98585.63;5236599;28;20909;-65
2023/04/09 05:23:59;;;;;;;14.97;13.63;;;5.70;99.90;;;6.51;100.00;98585.09;5239686;28;20200;-64
2023/04/09 05:26:32;;;;;;;15.23;13.83;;;5.70;99.90;;;6.55;100.00;98594.75;5234797;28;20231;-64
2023/04/09 05:29:05;;;;;;;15.03;13.73;;;5.70;99.90;;;6.54;100.00;98591.34;5238791;28;20201;-64
2023/04/09 05:31:39;;;;;;;15.10;13.80;;;5.70;99.90;;;6.50;100.00;98593.50;5241287;28;20727;-65
2023/04/09 05:34:12;;;;;;;15.67;14.27;;;5.60;99.90;;;6.56;100.00;98593.13;5233717;28;20223;-65
2023/04/09 05:36:46;;;;;;;15.20;13.70;;;5.70;99.90;;;6.70;100.00;98605.34;5236922;28;20208;-65
2023/04/09 05:39:19;;;;;;;14.70;13.37;;;5.80;99.90;;;6.83;100.00;98597.06;5239370;28;20199;-64
2023/04/09 05:41:52;;;;;;;14.93;13.47;;;5.90;99.90;;;6.99;100.00;98595.94;5233998;28;20211;-64
2023/04/09 05:44:25;;;;;;;15.23;13.73;;;6.10;99.90;;;7.30;100.00;98593.38;5236425;28;20204;-65
2023/04/09 05:46:58;;;;;;;15.30;13.90;;;6.20;99.90;;;7.72;98.04;98592.50;5233912;28;20686;-64
2023/04/09 05:49:31;;;;;;;14.37;12.97;;;6.50;99.90;;;8.01;97.16;98597.38;5229617;28;20216;-64
2023/04/09 05:52:06;;;;;;;14.37;12.97;;;6.60;99.90;;;8.40;94.07;98595.28;5239090;28;20207;-64
2023/04/09 05:54:39;;;;;;;14.37;13.07;;;6.90;99.90;;;8.61;92.33;98593.47;5237026;28;20612;-64
2023/04/09 05:57:12;;;;;;;12.80;11.70;;;7.10;99.90;;;8.97;91.51;98583.53;5229273;28;20242;-64
2023/04/09 05:59:45;;;;;;;12.97;11.87;;;7.40;99.90;;;9.18;88.57;98588.44;5236778;28;20687;-64
2023/04/09 06:02:18;;;;;;;13.57;12.27;;;7.60;99.90;;;9.53;86.84;98591.06;5234903;28;20192;-64
2023/04/09 06:04:52;;;;;;;13.03;11.93;;;8.00;99.90;;;10.00;86.13;98590.13;5244035;28;20225;-65
2023/04/09 06:07:26;;;;;;;12.20;11.20;;;8.40;99.90;;;10.40;82.93;98583.63;5239999;28;20214;-65
2023/04/09 06:09:59;;;;;;;13.87;12.57;;;8.70;99.90;;;10.62;80.21;98580.88;5239164;28;20717;-64
2023/04/09 06:12:34;;;;;;;12.35;11.23;;;8.90;99.90;;;10.99;79.35;98586.81;5241609;28;20201;-65
2023/04/09 06:15:08;;;;;;;13.50;12.38;;;9.20;99.90;;;11.34;77.90;98575.47;5236888;28;20220;-65
2023/04/09 06:17:41;;;;;;;13.32;12.13;;;9.50;99.90;;;11.69;73.52;98585.44;5237779;28;20605;-65
2023/04/09 06:20:14;;;;;;;14.43;13.13;;;9.60;99.90;;;11.76;72.76;98581.59;5242393;28;20204;-64
2023/04/09 06:22:48;;;;;;;15.48;14.18;;;9.70;99.90;;;11.72;71.24;98588.19;5243219;28;20196;-64
2023/04/09 06:25:22;;;;;;;14.52;13.23;;;9.60;99.90;;;11.90;71.62;98582.50;5242499;28;20215;-65
2023/04/09 06:27:55;;;;;;;15.57;14.27;;;9.80;99.90;;;11.79;70.39;98581.78;5240773;28;20196;-65
2023/04/09 06:30:30;;;;;;;14.45;13.23;;;9.90;99.90;;;12.01;70.21;98583.19;5245792;28;20639;-64
2023/04/09 06:33:03;;;;;;;15.00;13.60;;;10.00;99.90;;;12.07;68.07;98592.13;5241019;28;20261;-64
2023/04/09 06:35:36;;;;;;;13.93;12.73;;;10.20;99.90;;;12.48;67.63;98586.13;5235645;28;20309;-65
2023/04/09 06:38:11;;;;;;;14.80;13.45;;;10.30;99.90;;;12.68;66.79;98583.91;5237376;28;20304;-65
2023/04/09 06:40:44;;;;;;;18.48;16.10;;;10.50;99.90;;;12.68;65.99;98589.03;5240384;28;20291;-65
2023/04/09 06:43:17;;;;;;;14.38;13.18;;;10.50;99.90;;;12.93;64.36;98579.41;5236469;28;20207;-64
2023/04/09 06:45:50;;;;;;;14.32;13.13;;;10.70;99.90;;;12.79;65.77;98608.50;5237362;28;20262;-65
2023/04/09 06:48:23;;;;;;;13.43;12.32;;;10.80;99.90;;;12.65;66.42;98609.34;5246335;28;20282;-64
2023/04/09 06:50:56;;;;;;;14.43;13.15;;;10.80;99.90;;;12.76;65.79;98603.19;5232961;28;20196;-64
2023/04/09 06:53:30;;;;;;;14.52;13.30;;;11.00;99.90;;;13.03;64.50;98603.97;5238072;28;20974;-65
2023/04/09 06:56:04;;;;;;;14.95;13.63;;;11.20;99.90;;;12.84;65.22;98609.66;5240617;28;20227;-64
2023/04/09 06:58:37;;;;;;;13.85;12.65;;;11.20;99.90;;;13.13;64.77;98600.25;5237047;28;20232;-65
2023/04/09 07:01:10;;;;;;;14.90;13.60;;;11.30;99.90;;;13.01;62.96;98609.00;5242428;28;20219;-65
2023/04/09 07:03:43;;;;;;;14.30;13.07;;;11.30;99.90;;;13.32;62.91;98608.28;5233607;28;20204;-65
2023/04/09 07:06:16;;;;;;;15.80;14.30;;;11.40;99.90;;;12.90;62.72;98612.59;5241670;28;20216;-65
2023/04/09 07:08:50;;;;;;;15.50;14.20;;;11.30;99.90;;;13.47;58.75;98611.72;5245238;28;20698;-65
2023/04/09 07:11:24;;;;;;;14.70;13.40;;;11.70;99.90;;;13.94;56.64;98608.41;5245937;28;20200;-65
2023/04/09 07:13:57;;;;;;;15.70;14.27;;;12.10;99.90;;;13.94;58.16;98620.38;5244823;28;20208;-64
2023/04/09 07:16:30;;;;;;;15.63;14.43;;;12.10;99.90;;;13.70;56.16;98614.72;5240160;28;20225;-65
2023/04/09 07:19:05;;;;;;;14.55;13.32;;;11.90;99.90;;;14.04;56.16;98614.94;5240403;28;20227;-63
2023/04/09 07:21:38;;;;;;;15.23;13.93;;;12.00;99.90;;;14.25;55.55;98615.25;5245320;28;20196;-65
2023/04/09 07:24:12;;;;;;;15.10;13.80;;;12.10;99.90;;;14.40;54.09;98626.38;5240125;28;20211;-65
2023/04/09 07:26:45;;;;;;;15.45;14.15;;;12.20;99.90;;;14.12;53.79;98623.97;5241305;28;20581;-65
2023/04/09 07:29:19;;;;;;;14.88;13.68;;;11.90;99.90;;;14.40;52.23;98631.50;5240715;28;20198;-64
2023/04/09 07:31:52;;;;;;;14.88;13.57;;;12.10;99.90;;;13.90;52.60;98621.88;5246099;28;20626;-63
2023/04/09 07:34:26;;;;;;;15.60;14.30;;;12.20;99.90;;;13.91;53.31;98625.34;5239484;28;20634;-64
2023/04/09 07:36:59;;;;;;;15.70;14.40;;;12.30;99.90;;;12.85;54.71;98632.88;5246182;28;20398;-65
2023/04/09 07:39:33;;;;;;;15.73;14.43;;;11.70;99.90;;;12.68;55.96;98630.94;5243491;28;20623;-64
2023/04/09 07:42:06;;;;;;;17.20;15.70;;;11.50;99.90;;;11.92;58.68;98632.16;5237837;28;20526;-63
2023/04/09 07:44:39;;;;;;;16.75;15.25;;;11.10;99.90;;;11.61;61.24;98627.56;5243091;28;20347;-65
2023/04/09 07:47:13;;;;;;;16.38;14.98;;;10.60;99.90;;;11.94;59.75;98625.47;5244321;28;20660;-64
2023/04/09 07:49:46;;;;;;;14.85;13.65;;;10.80;99.90;;;12.31;61.14;98633.81;5254971;28;20687;-64
2023/04/09 07:52:19;;;;;;;14.75;13.55;;;11.30;99.90;;;11.99;59.04;98625.75;5237538;28;20295;-64
2023/04/09 07:54:53;;;;;;;14.95;13.75;;;11.10;99.90;;;12.43;58.37;98627.66;5245914;28;20727;-64
2023/04/09 07:57:26;;;;;;;15.90;14.50;;;11.40;99.90;;;12.74;55.38;98630.44;5239261;28;20676;-64
2023/04/09 08:00:00;;;;;;;16.73;15.32;;;11.80;99.90;;;12.30;57.51;98624.31;5245051;28;20220;-63
2023/04/09 08:02:33;;;;;;;14.35;13.10;;;11.50;99.90;;;12.57;57.65;98625.16;5240214;28;20254;-64
2023/04/09 08:05:07;;;;;;;14.50;13.30;;;11.70;99.90;;;13.02;55.60;98627.84;5240020;28;20308;-64
2023/04/09 08:07:40;;;;;;;15.45;14.10;;;12.20;99.90;;;12.69;55.75;98627.59;5241039;28;20266;-63
2023/04/09 08:10:15;;;;;;;15.90;14.55;;;11.80;99.90;;;12.95;57.14;98624.03;5235209;28;20191;-64
2023/04/09 08:12:49;;;;;;;15.48;14.10;;;12.10;99.90;;;13.08;56.02;98617.97;5239322;28;20299;-65
2023/04/09 08:15:22;;;;;;;15.18;13.88;;;12.30;99.90;;;13.18;54.73;98630.53;5237474;28;20247;-64
2023/04/09 08:17:55;;;;;;;12.73;11.73;;;12.40;99.90;;;12.90;53.46;98624.53;5241039;28;20199;-65
2023/04/09 08:20:29;;;;;;;13.15;12.05;;;12.20;98.90;;;13.30;52.97;98630.41;5237761;28;20209;-64
2023/04/09 08:23:02;;;;;;;12.98;11.88;;;12.70;98.30;;;13.35;52.09;98625.53;5236743;28;20578;-64
2023/04/09 08:25:36;;;;;;;13.00;11.80;;;12.90;98.20;;;13.46;51.95;98627.94;5240200;28;20716;-65
2023/04/09 08:28:09;;;;;;;12.82;11.82;;;13.00;97.40;;;13.54;52.29;98635.22;5243440;28;20652;-64
2023/04/09 08:30:42;;;;;;;12.20;11.20;;;13.00;97.60;;;13.66;50.36;98641.06;5239510;28;20295;-64
2023/04/09 08:33:16;;;;;;;12.40;11.43;;;13.20;96.50;;;13.65;49.68;98626.41;5240484;28;20197;-64
2023/04/09 08:35:49;;;;;;;11.85;10.95;;;13.10;96.20;;;13.78;50.68;98631.47;5242776;28;20319;-65
2023/04/09 08:38:22;;;;;;;11.32;10.43;;;13.30;96.10;;;13.72;50.23;98636.25;5241262;28;20228;-65
2023/04/09 08:40:57;;;;;;;11.15;10.25;;;13.10;96.10;;;13.53;50.53;98639.44;5235338;28;20291;-64
2023/04/09 08:43:32;;;;;;;13.45;12.25;;;12.80;96.20;;;13.66;51.61;98641.94;5236020;28;20354;-64
2023/04/09 08:46:25;;;;;;;12.82;11.70;;;13.00;96.80;;;13.67;50.67;98638.56;5234675;28;20281;-64
2023/04/09 08:48:59;;;;;;;12.65;11.65;;;13.10;96.80;;;13.68;52.01;98642.03;5241018;28;20551;-65
2023/04/09 08:51:32;;;;;;;12.50;11.50;;;13.00;97.60;;;13.80;51.46;98645.28;5239319;28;20205;-63
2023/04/09 08:54:05;;;;;;;11.85;10.85;;;13.20;97.10;;;13.56;51.09;98654.16;5240594;28;20312;-64
2023/04/09 08:56:39;;;;;;;12.52;11.52;;;12.90;96.90;;;13.75;51.81;98641.56;5236896;28;20225;-64
2023/04/09 08:59:16;;;;;;;13.30;12.20;;;13.10;97.10;;;13.70;51.29;98651.56;5241530;28;20230;-63
2023/04/09 09:01:53;;;;;;;13.57;12.48;;;13.10;96.90;;;13.61;50.63;98647.59;5241429;28;20583;-63
2023/04/09 09:04:45;;;;;;;12.18;11.23;;;12.80;96.50;;;13.54;51.95;98650.63;5236312;28;20300;-64
2023/04/09 09:07:18;;;;;;;11.48;10.57;;;12.80;97.80;;;13.81;51.44;98648.75;5236512;28;20207;-65
2023/04/09 09:09:53;;;;;;;10.88;10.00;;;13.00;96.80;;;14.14;49.79;98649.78;5236358;28;20204;-64
2023/04/09 09:12:36;;;;;;;10.90;10.05;;;13.30;96.10;;;14.09;50.31;98648.63;5245023;28;20196;-63
2023/04/09 09:15:27;;;;;;;9.35;8.65;;;13.40;96.40;;;14.19;47.64;98645.75;5241706;28;20767;-64
2023/04/09 09:18:00;;;;;;;10.75;9.75;;;13.50;94.80;;;13.87;48.57;98655.09;5239371;28;20201;-61
2023/04/09 09:20:33;;;;;;;11.75;10.75;;;13.10;94.60;;;13.77;49.96;98650.25;5239157;28;20228;-64
2023/04/09 09:23:07;;;;;;;12.85;11.85;;;13.00;95.80;;;13.66;52.59;98646.19;5234868;28;20584;-64
2023/04/09 09:25:42;;;;;;;13.02;11.93;;;12.70;97.90;;;13.67;54.07;98653.09;5244738;28;20224;-63
2023/04/09 09:28:16;;;;;;;11.63;10.73;;;12.70;99.30;;;13.75;52.73;98647.59;5242826;28;20291;-65
2023/04/09 09:30:49;;;;;;;9.98;9.20;;;12.70;98.00;;;13.52;48.17;98646.25;5240532;28;20678;-65
2023/04/09 09:33:22;;;;;;;9.50;8.80;;;12.50;95.40;;;13.27;50.75;98640.50;5235742;28;20584;-63
2023/04/09 09:35:56;;;;;;;8.48;7.88;;;12.40;96.30;;;13.43;50.50;98645.75;5239987;28;20217;-64
2023/04/09 09:38:30;;;;;;;9.30;8.60;;;12.50;96.00;;;13.35;49.33;98644.41;5237530;28;20671;-63
2023/04/09 09:41:17;;;;;;;9.60;8.90;;;12.30;95.70;;;13.73;48.74;98649.22;5239831;28;20219;-64
2023/04/09 09:43:52;;;;;;;9.82;9.02;;;12.80;95.00;;;13.69;49.55;98646.38;5237045;28;20196;-64
2023/04/09 09:46:27;;;;;;;10.23;9.48;;;12.80;95.50;;;13.57;50.30;98637.97;5242145;28;20224;-64
2023/04/09 09:49:00;;;;;;;9.88;9.07;;;12.70;95.70;;;13.73;49.41;98643.16;5238204;28;20212;-63
2023/04/09 09:51:37;;;;;;;10.10;9.35;;;12.80;95.80;;;13.77;50.61;98649.38;5231759;28;20747;-64
2023/04/09 09:54:12;;;;;;;10.23;9.40;;;12.80;96.10;;;13.85;49.31;98636.16;5236069;28;20197;-63
2023/04/09 09:56:46;;;;;;;11.15;10.25;;;13.10;95.50;;;13.91;50.48;98636.50;5222663;28;20208;-65
2023/04/09 09:59:23;;;;;;;10.93;10.13;;;13.20;95.80;;;13.71;52.14;98630.25;5234056;28;20677;-65
2023/04/09 10:02:00;;;;;;;10.50;9.70;;;12.90;97.30;;;13.86;50.36;98630.22;5232815;28;20216;-63
2023/04/09 10:04:35;;;;;;;11.18;10.27;;;13.00;96.10;;;13.88;50.64;98633.78;5234125;28;20212;-66
2023/04/09 10:07:09;;;;;;;34.30;30.08;;;12.90;96.30;;;14.02;52.74;98626.84;5231470;28;20200;-67
2023/04/09 10:09:46;;;;;;;74.05;55.33;;;12.90;97.80;;;14.13;52.03;98629.97;5232792;28;20200;-67
2023/04/09 10:12:23;;;;;;;23.95;21.35;;;13.20;97.30;;;14.40;50.51;98620.34;5233622;28;20649;-67
2023/04/09 10:15:03;;;;;;;17.00;15.27;;;13.30;97.30;;;14.62;49.70;98617.25;5236145;28;20559;-66
2023/04/09 10:17:37;;;;;;;11.10;10.10;;;13.50;95.70;;;14.27;47.41;98617.88;5235724;28;20215;-66
2023/04/09 10:20:16;;;;;;;25.58;22.33;;;13.30;94.90;;;14.20;50.39;98616.69;5236854;28;20215;-66
2023/04/09 10:22:52;;;;;;;10.43;9.52;;;13.20;96.60;;;14.39;48.32;98618.56;5235454;28;20192;-66
2023/04/09 10:25:25;;;;;;;10.00;9.20;;;13.30;95.50;;;13.98;47.92;98610.34;5237560;28;20220;-64
2023/04/09 10:28:00;;;;;;;7.20;6.70;;;12.80;95.40;;;14.36;44.89;98614.13;5238248;28;20288;-64
2023/04/09 10:30:36;;;;;;;7.10;6.60;;;13.30;92.70;;;14.31;44.68;98605.31;5238406;28;20303;-64
2023/04/09 10:33:15;;;;;;;5.93;5.53;;;13.30;92.40;;;14.70;41.14;98609.94;5240532;28;20200;-65
2023/04/09 10:35:48;;;;;;;6.03;5.53;;;13.90;89.80;;;14.90;40.69;98600.69;5238741;28;20311;-65
2023/04/09 10:38:36;;;;;;;5.55;5.15;;;14.30;86.80;;;15.12;40.94;98600.13;5239105;28;20196;-65
2023/04/09 10:41:22;;;;;;;6.22;5.75;;;14.60;87.10;;;14.89;39.25;98604.97;5234134;28;20693;-64
2023/04/09 10:43:55;;;;;;;6.10;5.70;;;14.40;84.40;;;14.80;39.78;98602.78;5239340;28;20584;-65